Strona główna
METAR-TAF:

METAR-TAF

Lotnisko :

Port lotniczy Weeze

Weeze, Niemcy

Szerokość geograficzna: 51-36-09N, Długość geograficzna: 006-08-32E, wysokość: 32 m

Aktualna obserwacja pogody

Raport powstał 18 minut temu, godzina 17:50 UTC
Wiatr 5 kt od północny zachód, zmienny między zachód i północ
Temperatura 18°C
Wilgotność 64%
Ciśnienie 1019 hPa
Widzialność 10 km lub więcej
Przerywane chmury na wysokości 4500 ft

METAR: EDLV 151750Z 31005KT 280V350 9999 BKN045 18/11 Q1019

czas: 20:08 (18:08 UTC)

Prognoza

Raport powstał 1 godzina i 8 minut temu, godzina 17:00 UTC
Prognoza ważna od 15 godzina 18 UTC do 16 godzina 18 UTC
Wiatr 4 kt od zachodnio-północny zachód
Widzialność 10 km lub więcej
Przerywane chmury na wysokości 3500 ft

TAF: EDLV 151700Z 1518/1618 30004KT 9999 BKN035

Obserwacja i prognoza pogody dla ponad 4000 lotnisk (raport METAR i TAF).

Dostępne stacje oznaczono żółtymi i czerwonymi punktami na mapie.

Najedź kursorem aby zobaczyć nazwę stacji.

Kliknij aby zobaczyć obserwacje i prognozy pogody.

Aby zmienić mapę: kliknij na zielony przycisk z czarnym krzyżykiem, aby powiększyć; na zielony przycisk z myślnikiem, aby pomniejszyć; na zielone strzałki, aby przejść do map sąsiednich.


METAR-TAF: